Silverton, Oregon
Current Conditions -  °F | °C
As of 6:56 AM on Wednesday 26 Nov 2014 (Local Time) from KSLE Reporting Station
Scattered Clouds Scattered Clouds  
Wind Chill: 54°   Ceiling: Unl
Heat Index: 54°   Visibility: 10mi
Dew Point: 49°   Wind: 12mph
Humidity: 83%   Direction: 190°S
Pressure: 30.19"   Gusts: NA
Location:  45°N, 122.78°W
Report Text: KSLE 261456Z 19010KT 10SM SCT042 12/09 A3019 RMK AO2 SLP223 T01220094 56016
Loading
Personal Weather Stations






























Interactive Weather Map New forecast layout! Learn more

10-Day Weather Forecast

Advertisements
Track Severe Weather on mobile